sensor_id;sensor_type;location;lat;lon;timestamp;pressure;altitude;pressure_sealevel;temperature;humidity
71109;BME280;59614;51.012;-1.648;2023-01-28T00:01:13;102284.78;;;2.52;81.34
71109;BME280;59614;51.012;-1.648;2023-01-28T00:03:40;102290.28;;;2.58;80.68
71109;BME280;59614;51.012;-1.648;2023-01-28T00:06:12;102290.03;;;2.54;80.75
71109;BME280;59614;51.012;-1.648;2023-01-28T00:08:37;102290.41;;;2.61;80.84
71109;BME280;59614;51.012;-1.648;2023-01-28T00:11:05;102283.28;;;2.57;80.36
71109;BME280;59614;51.012;-1.648;2023-01-28T00:13:31;102278.88;;;2.56;80.94
71109;BME280;59614;51.012;-1.648;2023-01-28T00:15:58;102274.56;;;2.57;80.58
71109;BME280;59614;51.012;-1.648;2023-01-28T00:18:25;102270.41;;;2.42;81.03
71109;BME280;59614;51.012;-1.648;2023-01-28T00:21:08;102264.91;;;2.36;80.88
71109;BME280;59614;51.012;-1.648;2023-01-28T00:23:36;102276.31;;;2.38;81.06
71109;BME280;59614;51.012;-1.648;2023-01-28T00:26:05;102268.88;;;2.28;81.31
71109;BME280;59614;51.012;-1.648;2023-01-28T00:28:31;102276.59;;;2.26;81.84
71109;BME280;59614;51.012;-1.648;2023-01-28T00:30:57;102275.63;;;2.42;81.37
71109;BME280;59614;51.012;-1.648;2023-01-28T00:33:23;102277.72;;;2.50;80.51
71109;BME280;59614;51.012;-1.648;2023-01-28T00:35:58;102278.59;;;2.50;80.74
71109;BME280;59614;51.012;-1.648;2023-01-28T00:38:25;102272.94;;;2.41;80.61
71109;BME280;59614;51.012;-1.648;2023-01-28T00:40:51;102273.97;;;2.44;80.63
71109;BME280;59614;51.012;-1.648;2023-01-28T00:43:16;102266.47;;;2.51;79.77
71109;BME280;59614;51.012;-1.648;2023-01-28T00:45:42;102262.69;;;2.44;79.41
71109;BME280;59614;51.012;-1.648;2023-01-28T00:48:07;102271.47;;;2.46;79.91
71109;BME280;59614;51.012;-1.648;2023-01-28T00:50:33;102270.25;;;2.57;79.31
71109;BME280;59614;51.012;-1.648;2023-01-28T00:52:58;102273.06;;;2.62;78.51
71109;BME280;59614;51.012;-1.648;2023-01-28T00:55:24;102270.06;;;2.72;78.16
71109;BME280;59614;51.012;-1.648;2023-01-28T00:57:50;102274.25;;;2.88;77.44
71109;BME280;59614;51.012;-1.648;2023-01-28T01:00:16;102275.13;;;2.89;77.11
71109;BME280;59614;51.012;-1.648;2023-01-28T01:02:43;102271.22;;;2.79;77.23
71109;BME280;59614;51.012;-1.648;2023-01-28T01:05:08;102269.84;;;2.87;76.38
71109;BME280;59614;51.012;-1.648;2023-01-28T01:07:34;102273.88;;;3.00;75.45
71109;BME280;59614;51.012;-1.648;2023-01-28T01:10:11;102266.97;;;3.01;75.45
71109;BME280;59614;51.012;-1.648;2023-01-28T01:12:37;102277.13;;;2.94;74.99
71109;BME280;59614;51.012;-1.648;2023-01-28T01:15:05;102282.41;;;2.96;75.46
71109;BME280;59614;51.012;-1.648;2023-01-28T01:17:37;102278.84;;;2.94;75.53
71109;BME280;59614;51.012;-1.648;2023-01-28T01:20:04;102277.56;;;3.04;75.07
71109;BME280;59614;51.012;-1.648;2023-01-28T01:22:34;102279.31;;;3.05;74.97
71109;BME280;59614;51.012;-1.648;2023-01-28T01:25:00;102284.41;;;3.02;75.00
71109;BME280;59614;51.012;-1.648;2023-01-28T01:27:25;102276.03;;;3.09;74.70
71109;BME280;59614;51.012;-1.648;2023-01-28T01:29:51;102281.53;;;3.15;74.79
71109;BME280;59614;51.012;-1.648;2023-01-28T01:32:16;102277.00;;;3.11;75.67
71109;BME280;59614;51.012;-1.648;2023-01-28T01:34:43;102283.78;;;3.07;75.98
71109;BME280;59614;51.012;-1.648;2023-01-28T01:37:08;102283.69;;;3.06;75.98
71109;BME280;59614;51.012;-1.648;2023-01-28T01:39:35;102276.69;;;3.05;76.68
71109;BME280;59614;51.012;-1.648;2023-01-28T01:42:01;102278.50;;;2.86;76.26
71109;BME280;59614;51.012;-1.648;2023-01-28T01:44:55;102280.28;;;2.87;77.02
71109;BME280;59614;51.012;-1.648;2023-01-28T01:50:36;102290.31;;;2.78;78.46
71109;BME280;59614;51.012;-1.648;2023-01-28T01:53:03;102279.59;;;2.91;78.98
71109;BME280;59614;51.012;-1.648;2023-01-28T01:55:33;102278.69;;;2.91;78.07
71109;BME280;59614;51.012;-1.648;2023-01-28T01:58:03;102280.69;;;2.97;77.95
71109;BME280;59614;51.012;-1.648;2023-01-28T02:00:30;102277.47;;;3.02;77.62
71109;BME280;59614;51.012;-1.648;2023-01-28T02:02:56;102286.06;;;3.00;77.40
71109;BME280;59614;51.012;-1.648;2023-01-28T02:05:23;102279.81;;;2.96;78.48
71109;BME280;59614;51.012;-1.648;2023-01-28T02:07:53;102273.91;;;2.81;79.24
71109;BME280;59614;51.012;-1.648;2023-01-28T02:10:21;102275.88;;;2.67;78.04
71109;BME280;59614;51.012;-1.648;2023-01-28T02:12:55;102277.06;;;2.73;78.17
71109;BME280;59614;51.012;-1.648;2023-01-28T02:15:23;102276.91;;;2.70;78.43
71109;BME280;59614;51.012;-1.648;2023-01-28T02:17:50;102273.53;;;2.73;78.52
71109;BME280;59614;51.012;-1.648;2023-01-28T02:20:21;102279.59;;;2.91;77.47
71109;BME280;59614;51.012;-1.648;2023-01-28T02:25:37;102273.44;;;2.89;78.54
71109;BME280;59614;51.012;-1.648;2023-01-28T02:36:17;102286.88;;;2.79;77.31
71109;BME280;59614;51.012;-1.648;2023-01-28T02:38:48;102284.88;;;2.93;77.15
71109;BME280;59614;51.012;-1.648;2023-01-28T02:41:22;102294.44;;;2.92;76.27
71109;BME280;59614;51.012;-1.648;2023-01-28T02:43:49;102285.75;;;2.93;76.92
71109;BME280;59614;51.012;-1.648;2023-01-28T02:49:20;102297.56;;;2.85;76.82
71109;BME280;59614;51.012;-1.648;2023-01-28T02:52:53;102297.72;;;2.88;76.75
71109;BME280;59614;51.012;-1.648;2023-01-28T02:55:17;102294.44;;;2.92;76.12
71109;BME280;59614;51.012;-1.648;2023-01-28T03:00:31;102303.28;;;2.96;76.45
71109;BME280;59614;51.012;-1.648;2023-01-28T03:03:14;102310.81;;;2.90;75.88
71109;BME280;59614;51.012;-1.648;2023-01-28T03:05:54;102315.31;;;2.92;75.79
71109;BME280;59614;51.012;-1.648;2023-01-28T03:11:25;102306.72;;;2.95;76.09
71109;BME280;59614;51.012;-1.648;2023-01-28T03:14:11;102315.31;;;2.92;76.07
71109;BME280;59614;51.012;-1.648;2023-01-28T03:16:58;102322.34;;;2.75;76.61
71109;BME280;59614;51.012;-1.648;2023-01-28T03:19:42;102316.91;;;2.71;76.45
71109;BME280;59614;51.012;-1.648;2023-01-28T03:22:28;102315.34;;;2.74;76.97
71109;BME280;59614;51.012;-1.648;2023-01-28T03:25:17;102321.44;;;2.75;77.16
71109;BME280;59614;51.012;-1.648;2023-01-28T03:28:05;102320.47;;;2.73;77.23
71109;BME280;59614;51.012;-1.648;2023-01-28T03:31:02;102324.09;;;2.76;77.02
71109;BME280;59614;51.012;-1.648;2023-01-28T03:33:48;102322.81;;;2.67;76.80
71109;BME280;59614;51.012;-1.648;2023-01-28T03:36:34;102330.63;;;2.67;77.30
71109;BME280;59614;51.012;-1.648;2023-01-28T03:39:17;102324.25;;;2.80;76.66
71109;BME280;59614;51.012;-1.648;2023-01-28T03:41:55;102329.00;;;2.69;76.79
71109;BME280;59614;51.012;-1.648;2023-01-28T03:44:21;102335.59;;;2.80;76.75
71109;BME280;59614;51.012;-1.648;2023-01-28T03:47:05;102331.59;;;2.69;76.38
71109;BME280;59614;51.012;-1.648;2023-01-28T03:49:33;102329.63;;;2.83;76.42
71109;BME280;59614;51.012;-1.648;2023-01-28T03:51:58;102330.81;;;2.89;76.08
71109;BME280;59614;51.012;-1.648;2023-01-28T03:54:24;102339.16;;;2.82;75.38
71109;BME280;59614;51.012;-1.648;2023-01-28T03:56:49;102338.41;;;2.85;75.84
71109;BME280;59614;51.012;-1.648;2023-01-28T03:59:14;102333.06;;;2.82;76.09
71109;BME280;59614;51.012;-1.648;2023-01-28T04:01:40;102331.88;;;2.75;76.01
71109;BME280;59614;51.012;-1.648;2023-01-28T04:04:05;102329.03;;;2.88;75.67
71109;BME280;59614;51.012;-1.648;2023-01-28T04:06:31;102327.84;;;2.82;75.21
71109;BME280;59614;51.012;-1.648;2023-01-28T04:08:56;102330.38;;;2.80;75.78
71109;BME280;59614;51.012;-1.648;2023-01-28T04:11:24;102330.44;;;2.82;75.62
71109;BME280;59614;51.012;-1.648;2023-01-28T04:13:50;102332.84;;;2.77;75.54
71109;BME280;59614;51.012;-1.648;2023-01-28T04:16:17;102336.31;;;2.77;75.49
71109;BME280;59614;51.012;-1.648;2023-01-28T04:18:43;102330.59;;;2.85;75.18
71109;BME280;59614;51.012;-1.648;2023-01-28T04:21:09;102331.00;;;2.74;76.53
71109;BME280;59614;51.012;-1.648;2023-01-28T04:23:35;102331.84;;;2.93;75.36
71109;BME280;59614;51.012;-1.648;2023-01-28T04:26:01;102332.66;;;2.92;75.44
71109;BME280;59614;51.012;-1.648;2023-01-28T04:28:28;102335.88;;;2.86;75.16
71109;BME280;59614;51.012;-1.648;2023-01-28T04:30:54;102333.31;;;2.88;75.29
71109;BME280;59614;51.012;-1.648;2023-01-28T04:33:19;102327.78;;;2.80;76.12
71109;BME280;59614;51.012;-1.648;2023-01-28T04:35:45;102333.00;;;2.80;75.29
71109;BME280;59614;51.012;-1.648;2023-01-28T04:38:10;102327.06;;;2.84;74.65
71109;BME280;59614;51.012;-1.648;2023-01-28T04:40:36;102319.91;;;2.98;74.37
71109;BME280;59614;51.012;-1.648;2023-01-28T04:43:01;102315.41;;;2.96;74.44
71109;BME280;59614;51.012;-1.648;2023-01-28T04:45:26;102316.44;;;2.99;74.49
71109;BME280;59614;51.012;-1.648;2023-01-28T04:47:52;102318.22;;;3.00;74.51
71109;BME280;59614;51.012;-1.648;2023-01-28T04:50:17;102325.34;;;3.03;73.99
71109;BME280;59614;51.012;-1.648;2023-01-28T04:52:43;102322.72;;;3.03;75.58
71109;BME280;59614;51.012;-1.648;2023-01-28T04:55:09;102328.88;;;3.05;74.36
71109;BME280;59614;51.012;-1.648;2023-01-28T04:57:35;102338.44;;;3.04;73.53
71109;BME280;59614;51.012;-1.648;2023-01-28T05:00:01;102330.81;;;3.09;74.34
71109;BME280;59614;51.012;-1.648;2023-01-28T05:02:27;102328.19;;;3.09;73.89
71109;BME280;59614;51.012;-1.648;2023-01-28T05:04:52;102317.91;;;3.12;74.06
71109;BME280;59614;51.012;-1.648;2023-01-28T05:07:17;102311.06;;;3.14;74.18
71109;BME280;59614;51.012;-1.648;2023-01-28T05:09:43;102317.41;;;3.21;73.32
71109;BME280;59614;51.012;-1.648;2023-01-28T05:12:08;102315.66;;;3.20;74.27
71109;BME280;59614;51.012;-1.648;2023-01-28T05:14:34;102318.47;;;3.24;74.38
71109;BME280;59614;51.012;-1.648;2023-01-28T05:16:59;102309.81;;;3.26;74.91
71109;BME280;59614;51.012;-1.648;2023-01-28T05:19:24;102311.31;;;3.20;75.26
71109;BME280;59614;51.012;-1.648;2023-01-28T05:21:50;102312.94;;;3.18;76.83
71109;BME280;59614;51.012;-1.648;2023-01-28T05:24:15;102317.16;;;3.15;77.15
71109;BME280;59614;51.012;-1.648;2023-01-28T05:26:41;102311.59;;;3.07;77.77
71109;BME280;59614;51.012;-1.648;2023-01-28T05:29:06;102315.00;;;3.06;77.29
71109;BME280;59614;51.012;-1.648;2023-01-28T05:31:32;102324.38;;;3.01;74.57
71109;BME280;59614;51.012;-1.648;2023-01-28T05:33:57;102323.75;;;3.06;75.88
71109;BME280;59614;51.012;-1.648;2023-01-28T05:36:23;102336.19;;;3.12;73.84
71109;BME280;59614;51.012;-1.648;2023-01-28T05:38:48;102328.59;;;3.18;74.54
71109;BME280;59614;51.012;-1.648;2023-01-28T05:41:14;102329.22;;;3.13;74.17
71109;BME280;59614;51.012;-1.648;2023-01-28T05:43:39;102336.53;;;3.20;74.67
71109;BME280;59614;51.012;-1.648;2023-01-28T05:46:05;102337.66;;;3.27;72.71
71109;BME280;59614;51.012;-1.648;2023-01-28T05:48:30;102336.16;;;3.32;72.71
71109;BME280;59614;51.012;-1.648;2023-01-28T05:50:56;102346.06;;;3.19;72.45
71109;BME280;59614;51.012;-1.648;2023-01-28T05:53:21;102351.47;;;3.24;73.30
71109;BME280;59614;51.012;-1.648;2023-01-28T05:55:50;102345.38;;;3.23;73.25
71109;BME280;59614;51.012;-1.648;2023-01-28T05:58:18;102337.41;;;3.20;75.44
71109;BME280;59614;51.012;-1.648;2023-01-28T06:00:44;102330.97;;;3.12;75.52
71109;BME280;59614;51.012;-1.648;2023-01-28T06:03:09;102347.69;;;3.17;75.00
71109;BME280;59614;51.012;-1.648;2023-01-28T06:05:35;102352.28;;;3.23;74.49
71109;BME280;59614;51.012;-1.648;2023-01-28T06:08:00;102348.94;;;3.06;75.71
71109;BME280;59614;51.012;-1.648;2023-01-28T06:10:26;102345.84;;;3.15;75.96
71109;BME280;59614;51.012;-1.648;2023-01-28T06:12:51;102351.31;;;3.21;76.77
71109;BME280;59614;51.012;-1.648;2023-01-28T06:15:17;102346.63;;;3.12;75.09
71109;BME280;59614;51.012;-1.648;2023-01-28T06:17:42;102334.03;;;3.03;76.44
71109;BME280;59614;51.012;-1.648;2023-01-28T06:20:08;102332.72;;;2.93;74.50
71109;BME280;59614;51.012;-1.648;2023-01-28T06:22:35;102344.53;;;3.05;75.79
71109;BME280;59614;51.012;-1.648;2023-01-28T06:25:01;102348.31;;;3.12;73.46
71109;BME280;59614;51.012;-1.648;2023-01-28T06:27:27;102357.16;;;2.96;73.56
71109;BME280;59614;51.012;-1.648;2023-01-28T06:29:52;102359.72;;;3.14;73.82
71109;BME280;59614;51.012;-1.648;2023-01-28T06:32:18;102352.50;;;3.08;75.09
71109;BME280;59614;51.012;-1.648;2023-01-28T06:34:43;102346.25;;;3.04;76.00
71109;BME280;59614;51.012;-1.648;2023-01-28T06:37:12;102342.22;;;3.11;76.48
71109;BME280;59614;51.012;-1.648;2023-01-28T06:39:37;102357.47;;;3.02;76.41
71109;BME280;59614;51.012;-1.648;2023-01-28T06:42:03;102352.50;;;3.08;76.40
71109;BME280;59614;51.012;-1.648;2023-01-28T06:44:28;102359.09;;;3.00;74.89
71109;BME280;59614;51.012;-1.648;2023-01-28T06:46:54;102354.97;;;3.05;76.59
71109;BME280;59614;51.012;-1.648;2023-01-28T06:49:19;102359.50;;;3.09;74.95
71109;BME280;59614;51.012;-1.648;2023-01-28T06:51:46;102352.84;;;3.16;75.30
71109;BME280;59614;51.012;-1.648;2023-01-28T06:54:11;102352.66;;;3.11;76.38
71109;BME280;59614;51.012;-1.648;2023-01-28T06:56:37;102352.44;;;3.06;75.04
71109;BME280;59614;51.012;-1.648;2023-01-28T06:59:02;102349.31;;;2.96;73.83
71109;BME280;59614;51.012;-1.648;2023-01-28T07:01:27;102350.31;;;2.98;76.01
71109;BME280;59614;51.012;-1.648;2023-01-28T07:03:53;102347.13;;;3.05;75.11
71109;BME280;59614;51.012;-1.648;2023-01-28T07:06:18;102343.84;;;3.09;76.11
71109;BME280;59614;51.012;-1.648;2023-01-28T07:08:44;102352.66;;;3.11;76.62
71109;BME280;59614;51.012;-1.648;2023-01-28T07:11:10;102352.44;;;3.06;74.47
71109;BME280;59614;51.012;-1.648;2023-01-28T07:13:35;102351.63;;;3.07;74.55
71109;BME280;59614;51.012;-1.648;2023-01-28T07:16:01;102344.88;;;3.13;74.87
71109;BME280;59614;51.012;-1.648;2023-01-28T07:18:27;102346.63;;;3.12;73.54
71109;BME280;59614;51.012;-1.648;2023-01-28T07:20:53;102344.25;;;3.18;73.71
71109;BME280;59614;51.012;-1.648;2023-01-28T07:23:18;102357.31;;;3.18;72.47
71109;BME280;59614;51.012;-1.648;2023-01-28T07:25:44;102354.19;;;3.26;73.11
71109;BME280;59614;51.012;-1.648;2023-01-28T07:28:09;102363.75;;;3.07;74.27
71109;BME280;59614;51.012;-1.648;2023-01-28T07:30:36;102354.28;;;3.09;75.77
71109;BME280;59614;51.012;-1.648;2023-01-28T07:33:01;102350.72;;;3.07;76.67
71109;BME280;59614;51.012;-1.648;2023-01-28T07:35:27;102358.91;;;3.15;76.32
71109;BME280;59614;51.012;-1.648;2023-01-28T07:37:53;102364.25;;;3.18;75.55
71109;BME280;59614;51.012;-1.648;2023-01-28T07:40:20;102364.72;;;3.09;76.92
71109;BME280;59614;51.012;-1.648;2023-01-28T07:42:45;102365.63;;;3.09;76.79
71109;BME280;59614;51.012;-1.648;2023-01-28T07:45:11;102360.41;;;3.09;75.72
71109;BME280;59614;51.012;-1.648;2023-01-28T07:47:36;102370.34;;;2.99;74.20
71109;BME280;59614;51.012;-1.648;2023-01-28T07:50:02;102378.53;;;3.06;73.74
71109;BME280;59614;51.012;-1.648;2023-01-28T07:52:27;102381.13;;;3.06;74.43
71109;BME280;59614;51.012;-1.648;2023-01-28T07:54:53;102384.16;;;3.16;75.12
71109;BME280;59614;51.012;-1.648;2023-01-28T07:57:18;102379.97;;;3.19;74.99
71109;BME280;59614;51.012;-1.648;2023-01-28T07:59:50;102379.16;;;3.20;75.06
71109;BME280;59614;51.012;-1.648;2023-01-28T08:02:16;102383.28;;;3.15;75.32
71109;BME280;59614;51.012;-1.648;2023-01-28T08:04:42;102388.50;;;3.15;74.13
71109;BME280;59614;51.012;-1.648;2023-01-28T08:07:07;102391.22;;;3.18;74.52
71109;BME280;59614;51.012;-1.648;2023-01-28T08:09:33;102382.94;;;3.07;74.76
71109;BME280;59614;51.012;-1.648;2023-01-28T08:12:00;102384.22;;;3.17;75.36
71109;BME280;59614;51.012;-1.648;2023-01-28T08:14:26;102377.91;;;3.12;75.32
71109;BME280;59614;51.012;-1.648;2023-01-28T08:16:51;102391.13;;;3.15;76.60
71109;BME280;59614;51.012;-1.648;2023-01-28T08:19:17;102386.38;;;3.26;76.22
71109;BME280;59614;51.012;-1.648;2023-01-28T08:21:42;102381.50;;;3.14;76.86
71109;BME280;59614;51.012;-1.648;2023-01-28T08:24:08;102378.13;;;3.17;76.64
71109;BME280;59614;51.012;-1.648;2023-01-28T08:26:34;102386.56;;;3.31;75.78
71109;BME280;59614;51.012;-1.648;2023-01-28T08:28:59;102395.44;;;3.34;76.88
71109;BME280;59614;51.012;-1.648;2023-01-28T08:31:26;102390.34;;;3.37;77.29
71109;BME280;59614;51.012;-1.648;2023-01-28T08:33:51;102389.75;;;3.23;77.71
71109;BME280;59614;51.012;-1.648;2023-01-28T08:36:17;102388.97;;;3.26;75.96
71109;BME280;59614;51.012;-1.648;2023-01-28T08:38:42;102383.91;;;3.29;76.04
71109;BME280;59614;51.012;-1.648;2023-01-28T08:41:08;102392.50;;;3.46;76.04
71109;BME280;59614;51.012;-1.648;2023-01-28T08:43:33;102385.34;;;3.42;77.45
71109;BME280;59614;51.012;-1.648;2023-01-28T08:45:59;102388.63;;;3.38;77.03
71109;BME280;59614;51.012;-1.648;2023-01-28T08:48:24;102387.13;;;3.43;77.08
71109;BME280;59614;51.012;-1.648;2023-01-28T08:50:49;102389.47;;;3.57;76.70
71109;BME280;59614;51.012;-1.648;2023-01-28T08:53:17;102395.84;;;3.63;76.34
71109;BME280;59614;51.012;-1.648;2023-01-28T08:55:43;102395.31;;;3.51;77.50
71109;BME280;59614;51.012;-1.648;2023-01-28T08:58:11;102406.00;;;3.57;77.58
71109;BME280;59614;51.012;-1.648;2023-01-28T09:00:38;102408.41;;;3.52;77.11
71109;BME280;59614;51.012;-1.648;2023-01-28T09:03:04;102411.72;;;3.48;77.27
71109;BME280;59614;51.012;-1.648;2023-01-28T09:05:29;102410.59;;;3.63;77.12
71109;BME280;59614;51.012;-1.648;2023-01-28T09:08:00;102408.56;;;3.55;76.06
71109;BME280;59614;51.012;-1.648;2023-01-28T09:10:26;102408.28;;;3.69;74.87
71109;BME280;59614;51.012;-1.648;2023-01-28T09:12:51;102410.91;;;3.69;76.13
71109;BME280;59614;51.012;-1.648;2023-01-28T09:15:17;102418.44;;;3.82;76.30
71109;BME280;59614;51.012;-1.648;2023-01-28T09:17:42;102413.63;;;3.92;77.05
71109;BME280;59614;51.012;-1.648;2023-01-28T09:20:08;102414.00;;;4.01;75.90
71109;BME280;59614;51.012;-1.648;2023-01-28T09:22:34;102410.03;;;3.90;75.25
71109;BME280;59614;51.012;-1.648;2023-01-28T09:24:59;102406.69;;;3.73;74.25
71109;BME280;59614;51.012;-1.648;2023-01-28T09:27:25;102408.81;;;3.62;74.93
71109;BME280;59614;51.012;-1.648;2023-01-28T09:29:50;102404.13;;;3.94;75.19
71109;BME280;59614;51.012;-1.648;2023-01-28T09:32:16;102408.53;;;4.16;75.02
71109;BME280;59614;51.012;-1.648;2023-01-28T09:34:41;102416.94;;;4.30;74.49
71109;BME280;59614;51.012;-1.648;2023-01-28T09:37:09;102410.25;;;4.37;74.74
71109;BME280;59614;51.012;-1.648;2023-01-28T09:39:35;102417.44;;;4.42;74.56
71109;BME280;59614;51.012;-1.648;2023-01-28T09:47:59;102425.38;;;4.23;76.55
71109;BME280;59614;51.012;-1.648;2023-01-28T09:50:37;102421.81;;;4.42;75.85
71109;BME280;59614;51.012;-1.648;2023-01-28T09:53:07;102418.41;;;4.44;75.17
71109;BME280;59614;51.012;-1.648;2023-01-28T09:55:38;102407.00;;;4.42;75.07
71109;BME280;59614;51.012;-1.648;2023-01-28T09:58:09;102413.22;;;4.67;74.69
71109;BME280;59614;51.012;-1.648;2023-01-28T10:01:37;102406.06;;;4.63;74.08
71109;BME280;59614;51.012;-1.648;2023-01-28T10:03:59;102413.44;;;4.73;73.94
71109;BME280;59614;51.012;-1.648;2023-01-28T10:06:45;102394.91;;;4.90;73.70
71109;BME280;59614;51.012;-1.648;2023-01-28T10:09:17;102398.84;;;5.01;72.84
71109;BME280;59614;51.012;-1.648;2023-01-28T10:20:22;102419.63;;;5.21;70.92
71109;BME280;59614;51.012;-1.648;2023-01-28T10:25:34;102415.97;;;4.93;70.49
71109;BME280;59614;51.012;-1.648;2023-01-28T10:28:01;102417.50;;;5.10;70.61
71109;BME280;59614;51.012;-1.648;2023-01-28T10:30:30;102417.69;;;4.92;70.47
71109;BME280;59614;51.012;-1.648;2023-01-28T10:35:51;102391.50;;;5.15;71.88
71109;BME280;59614;51.012;-1.648;2023-01-28T10:38:20;102388.53;;;5.29;71.54
71109;BME280;59614;51.012;-1.648;2023-01-28T10:40:46;102394.66;;;5.29;70.93
71109;BME280;59614;51.012;-1.648;2023-01-28T10:43:15;102372.06;;;5.08;71.50
71109;BME280;59614;51.012;-1.648;2023-01-28T10:48:37;102358.28;;;5.61;70.32
71109;BME280;59614;51.012;-1.648;2023-01-28T10:51:05;102367.47;;;5.50;70.43
71109;BME280;59614;51.012;-1.648;2023-01-28T10:53:46;102371.75;;;5.48;71.52
71109;BME280;59614;51.012;-1.648;2023-01-28T10:56:24;102370.34;;;5.33;69.68
71109;BME280;59614;51.012;-1.648;2023-01-28T10:59:14;102362.44;;;5.56;70.28
71109;BME280;59614;51.012;-1.648;2023-01-28T11:01:48;102338.66;;;5.76;70.28
71109;BME280;59614;51.012;-1.648;2023-01-28T11:04:26;102337.66;;;5.98;68.87
71109;BME280;59614;51.012;-1.648;2023-01-28T11:07:03;102320.44;;;6.32;68.78
71109;BME280;59614;51.012;-1.648;2023-01-28T11:09:32;102321.88;;;6.22;69.07
71109;BME280;59614;51.012;-1.648;2023-01-28T11:14:37;102339.78;;;6.08;68.39
71109;BME280;59614;51.012;-1.648;2023-01-28T11:17:02;102329.25;;;6.34;68.92
71109;BME280;59614;51.012;-1.648;2023-01-28T11:19:33;102323.09;;;6.33;68.55
71109;BME280;59614;51.012;-1.648;2023-01-28T11:21:59;102318.16;;;6.43;68.84
71109;BME280;59614;51.012;-1.648;2023-01-28T11:24:29;102316.16;;;6.34;67.40
71109;BME280;59614;51.012;-1.648;2023-01-28T11:26:57;102309.94;;;6.30;67.02
71109;BME280;59614;51.012;-1.648;2023-01-28T11:29:26;102308.38;;;6.10;65.49
71109;BME280;59614;51.012;-1.648;2023-01-28T11:31:55;102323.31;;;6.40;64.81
71109;BME280;59614;51.012;-1.648;2023-01-28T11:34:29;102316.91;;;6.31;66.24
71109;BME280;59614;51.012;-1.648;2023-01-28T11:37:12;102327.53;;;6.07;65.98
71109;BME280;59614;51.012;-1.648;2023-01-28T11:39:40;102318.00;;;6.11;66.38
71109;BME280;59614;51.012;-1.648;2023-01-28T11:42:20;102317.88;;;6.06;68.00
71109;BME280;59614;51.012;-1.648;2023-01-28T11:44:47;102331.81;;;6.32;68.11
71109;BME280;59614;51.012;-1.648;2023-01-28T12:01:07;102348.34;;;6.57;69.53
71109;BME280;59614;51.012;-1.648;2023-01-28T12:03:42;102346.63;;;6.58;67.94
71109;BME280;59614;51.012;-1.648;2023-01-28T12:12:02;102358.53;;;6.48;68.38
71109;BME280;59614;51.012;-1.648;2023-01-28T12:41:14;102348.44;;;6.60;66.49
71109;BME280;59614;51.012;-1.648;2023-01-28T12:43:48;102343.78;;;6.52;65.91
71109;BME280;59614;51.012;-1.648;2023-01-28T12:48:50;102326.09;;;6.17;66.56
71109;BME280;59614;51.012;-1.648;2023-01-28T12:51:29;102318.81;;;6.36;67.30
71109;BME280;59614;51.012;-1.648;2023-01-28T12:54:05;102330.09;;;6.33;67.77
71109;BME280;59614;51.012;-1.648;2023-01-28T12:56:41;102327.66;;;6.39;67.97
71109;BME280;59614;51.012;-1.648;2023-01-28T12:59:15;102325.00;;;6.10;67.65
71109;BME280;59614;51.012;-1.648;2023-01-28T13:01:54;102326.31;;;6.52;68.56
71109;BME280;59614;51.012;-1.648;2023-01-28T13:07:05;102319.66;;;6.34;67.12
71109;BME280;59614;51.012;-1.648;2023-01-28T13:09:35;102306.13;;;6.78;68.02
71109;BME280;59614;51.012;-1.648;2023-01-28T13:12:02;102308.31;;;6.64;67.08
71109;BME280;59614;51.012;-1.648;2023-01-28T13:14:31;102307.16;;;6.55;67.62
71109;BME280;59614;51.012;-1.648;2023-01-28T13:17:27;102309.03;;;6.89;67.46
71109;BME280;59614;51.012;-1.648;2023-01-28T13:19:53;102304.84;;;6.65;67.21
71109;BME280;59614;51.012;-1.648;2023-01-28T13:22:31;102306.03;;;6.75;67.96
71109;BME280;59614;51.012;-1.648;2023-01-28T13:25:21;102293.00;;;6.78;68.29
71109;BME280;59614;51.012;-1.648;2023-01-28T13:30:24;102285.63;;;6.95;68.73
71109;BME280;59614;51.012;-1.648;2023-01-28T13:33:01;102287.16;;;6.89;67.52
71109;BME280;59614;51.012;-1.648;2023-01-28T13:35:37;102280.22;;;6.91;67.86
71109;BME280;59614;51.012;-1.648;2023-01-28T13:38:18;102279.69;;;7.03;68.46
71109;BME280;59614;51.012;-1.648;2023-01-28T13:40:54;102281.25;;;6.96;67.75
71109;BME280;59614;51.012;-1.648;2023-01-28T13:45:59;102287.34;;;6.95;67.35
71109;BME280;59614;51.012;-1.648;2023-01-28T13:50:59;102285.03;;;6.75;68.61
71109;BME280;59614;51.012;-1.648;2023-01-28T13:53:44;102273.56;;;7.02;67.96
71109;BME280;59614;51.012;-1.648;2023-01-28T13:56:24;102274.81;;;7.17;67.45
71109;BME280;59614;51.012;-1.648;2023-01-28T13:59:12;102269.28;;;7.06;67.84
71109;BME280;59614;51.012;-1.648;2023-01-28T14:01:56;102273.94;;;6.86;68.03
71109;BME280;59614;51.012;-1.648;2023-01-28T14:04:29;102271.69;;;6.98;67.54
71109;BME280;59614;51.012;-1.648;2023-01-28T14:10:21;102272.72;;;7.03;68.21
71109;BME280;59614;51.012;-1.648;2023-01-28T14:18:40;102269.78;;;6.94;68.68
71109;BME280;59614;51.012;-1.648;2023-01-28T14:21:12;102266.53;;;6.71;69.60
71109;BME280;59614;51.012;-1.648;2023-01-28T14:23:50;102273.97;;;6.87;69.06
71109;BME280;59614;51.012;-1.648;2023-01-28T14:26:39;102271.41;;;6.89;69.26
71109;BME280;59614;51.012;-1.648;2023-01-28T14:29:44;102269.66;;;6.89;69.35
71109;BME280;59614;51.012;-1.648;2023-01-28T14:32:15;102267.28;;;6.67;69.48
71109;BME280;59614;51.012;-1.648;2023-01-28T14:34:43;102271.09;;;6.78;70.89
71109;BME280;59614;51.012;-1.648;2023-01-28T14:37:16;102274.50;;;6.16;70.34
71109;BME280;59614;51.012;-1.648;2023-01-28T14:39:50;102275.09;;;6.36;71.50
71109;BME280;59614;51.012;-1.648;2023-01-28T14:42:24;102273.88;;;6.52;71.17
71109;BME280;59614;51.012;-1.648;2023-01-28T14:51:04;102270.66;;;6.33;72.47
71109;BME280;59614;51.012;-1.648;2023-01-28T14:53:17;102268.88;;;6.32;72.32
71109;BME280;59614;51.012;-1.648;2023-01-28T14:58:39;102280.69;;;6.18;73.08
71109;BME280;59614;51.012;-1.648;2023-01-28T15:01:20;102284.44;;;6.26;73.16
71109;BME280;59614;51.012;-1.648;2023-01-28T15:03:46;102279.63;;;6.42;72.39
71109;BME280;59614;51.012;-1.648;2023-01-28T15:06:14;102280.59;;;6.44;72.15
71109;BME280;59614;51.012;-1.648;2023-01-28T15:08:40;102268.69;;;5.99;72.83